Time;durP1;ratioP1;P1;durP2;ratioP2;P2;SDS_P1;SDS_P2;PMS_P1;PMS_P2;Temp;Humidity;BMP_temperature;BMP_pressure;BME280_temperature;BME280_humidity;BME280_pressure;Samples;Min_cycle;Max_cycle;Signal;HPM_P1;HPM_P2
2022/03/22 00:01:52;;;;;;;7.63;1.33;;;28.40;15.70;;;;;;4965921;28;20087;-62
2022/03/22 00:04:19;;;;;;;6.55;1.45;;;28.40;15.70;;;;;;4950543;29;20217;-64
2022/03/22 00:06:45;;;;;;;12.68;1.83;;;28.40;15.70;;;;;;4948671;28;20162;-64
2022/03/22 00:09:12;;;;;;;6.28;1.20;;;28.50;16.20;;;;;;4950167;28;20068;-67
2022/03/22 00:11:39;;;;;;;7.05;1.60;;;28.40;16.30;;;;;;4950660;28;20689;-63
2022/03/22 00:14:08;;;;;;;5.10;1.15;;;28.40;16.60;;;;;;4950062;29;20078;-65
2022/03/22 00:16:36;;;;;;;5.20;1.13;;;28.30;16.40;;;;;;4966106;28;20559;-64
2022/03/22 00:19:02;;;;;;;7.47;1.40;;;28.30;16.80;;;;;;4950315;29;20083;-64
2022/03/22 00:21:29;;;;;;;11.65;1.83;;;28.20;16.40;;;;;;4950036;29;20083;-66
2022/03/22 00:23:55;;;;;;;11.32;1.17;;;28.20;17.50;;;;;;4949309;29;20169;-63
2022/03/22 00:26:22;;;;;;;5.65;1.27;;;28.10;16.50;;;;;;4950787;28;20087;-64
2022/03/22 00:28:48;;;;;;;5.68;1.08;;;28.10;16.30;;;;;;4950421;29;20741;-64
2022/03/22 00:31:15;;;;;;;11.25;1.80;;;28.10;16.40;;;;;;4966027;28;20430;-65
2022/03/22 00:33:42;;;;;;;14.07;1.98;;;28.00;16.40;;;;;;4949851;29;20226;-64
2022/03/22 00:36:08;;;;;;;10.82;1.27;;;28.00;16.40;;;;;;4949577;29;20080;-64
2022/03/22 00:38:34;;;;;;;8.30;1.63;;;27.90;16.60;;;;;;4959098;28;20094;-64
2022/03/22 00:41:01;;;;;;;6.45;1.30;;;27.90;16.90;;;;;;4950118;28;20076;-66
2022/03/22 00:43:27;;;;;;;37.88;3.75;;;27.90;16.80;;;;;;4949339;29;20499;-66
2022/03/22 00:45:55;;;;;;;41.47;4.03;;;27.80;16.60;;;;;;4950316;29;20082;-63
2022/03/22 00:48:21;;;;;;;11.50;1.80;;;27.70;16.30;;;;;;4947297;28;20080;-63
2022/03/22 00:50:48;;;;;;;7.00;1.73;;;27.70;16.40;;;;;;4951560;28;20123;-63
2022/03/22 00:53:18;;;;;;;8.50;1.75;;;27.60;16.40;;;;;;4950618;28;20064;-64
2022/03/22 00:55:46;;;;;;;10.00;1.48;;;27.50;16.50;;;;;;4965074;28;20083;-64
2022/03/22 00:58:12;;;;;;;7.28;1.55;;;27.50;16.80;;;;;;4953174;29;20079;-65
2022/03/22 01:00:39;;;;;;;7.15;1.65;;;27.60;16.70;;;;;;4954692;28;20102;-65
2022/03/22 01:03:07;;;;;;;8.18;1.52;;;27.70;17.00;;;;;;4953541;28;20072;-64
2022/03/22 01:05:35;;;;;;;8.55;1.60;;;27.60;17.10;;;;;;4952578;28;20111;-64
2022/03/22 01:08:03;;;;;;;13.38;1.67;;;27.50;17.20;;;;;;4937898;29;20525;-64
2022/03/22 01:10:31;;;;;;;10.98;1.65;;;27.30;17.00;;;;;;4953847;29;20211;-63
2022/03/22 01:12:58;;;;;;;8.77;1.70;;;27.20;17.60;;;;;;4967997;28;20102;-64
2022/03/22 01:15:28;;;;;;;8.20;1.73;;;27.10;18.00;;;;;;4954102;28;20064;-63
2022/03/22 01:17:55;;;;;;;8.07;1.38;;;27.00;17.90;;;;;;4954363;29;20126;-65
2022/03/22 01:20:26;;;;;;;9.85;1.63;;;26.90;17.80;;;;;;4968115;28;20087;-66
2022/03/22 01:22:54;;;;;;;14.45;1.45;;;26.80;17.80;;;;;;4953358;28;20079;-64
2022/03/22 01:25:25;;;;;;;13.90;1.92;;;26.70;17.60;;;;;;4953021;28;20524;-66
2022/03/22 01:27:52;;;;;;;15.18;1.95;;;26.60;17.80;;;;;;4969255;28;20187;-64
2022/03/22 01:30:20;;;;;;;14.15;1.92;;;26.50;18.00;;;;;;4953302;28;20106;-65
2022/03/22 01:32:49;;;;;;;14.82;1.70;;;26.40;18.00;;;;;;4967733;28;20095;-64
2022/03/22 01:35:16;;;;;;;5.45;1.25;;;26.30;17.90;;;;;;4952546;28;20076;-64
2022/03/22 01:37:47;;;;;;;7.78;1.60;;;26.30;17.70;;;;;;4968027;28;20102;-60
2022/03/22 01:40:15;;;;;;;7.53;1.35;;;26.20;17.70;;;;;;4952708;29;20166;-62
2022/03/22 01:42:41;;;;;;;6.60;1.55;;;26.20;17.70;;;;;;4952194;29;20146;-63
2022/03/22 01:45:09;;;;;;;8.68;1.50;;;26.10;17.70;;;;;;4948649;28;20091;-64
2022/03/22 01:47:41;;;;;;;10.20;1.67;;;26.00;17.70;;;;;;4951763;29;20102;-65
2022/03/22 01:50:11;;;;;;;8.68;1.60;;;25.90;17.50;;;;;;4951520;29;20504;-64
2022/03/22 01:52:40;;;;;;;7.88;1.55;;;25.90;17.50;;;;;;4968618;28;20068;-63
2022/03/22 01:55:07;;;;;;;16.75;2.47;;;25.80;17.60;;;;;;4938764;29;20076;-64
2022/03/22 01:57:34;;;;;;;19.08;2.00;;;25.80;17.40;;;;;;4952704;29;20091;-59
2022/03/22 02:00:08;;;;;;;14.88;2.05;;;25.70;17.40;;;;;;4966453;28;20605;-66
2022/03/22 02:08:11;;;;;;;10.38;1.60;;;25.50;17.40;;;;;;4951908;28;20104;-64
2022/03/22 02:10:38;;;;;;;8.82;1.35;;;25.40;17.50;;;;;;4951543;29;20072;-65
2022/03/22 02:13:05;;;;;;;8.07;1.30;;;25.30;17.30;;;;;;4951507;29;20080;-64
2022/03/22 02:15:31;;;;;;;10.52;1.60;;;25.30;17.20;;;;;;4953099;29;20504;-66
2022/03/22 02:17:59;;;;;;;12.23;2.20;;;25.30;17.20;;;;;;4951177;29;20158;-66
2022/03/22 02:20:26;;;;;;;14.45;1.60;;;25.20;17.30;;;;;;4952988;29;20084;-65
2022/03/22 02:22:59;;;;;;;8.90;1.77;;;25.10;17.30;;;;;;4967878;28;20076;-64
2022/03/22 02:25:25;;;;;;;12.63;1.80;;;25.10;17.70;;;;;;4954962;28;20150;-66
2022/03/22 02:27:52;;;;;;;7.43;1.42;;;24.90;17.80;;;;;;4952067;29;20602;-64
2022/03/22 02:30:20;;;;;;;7.35;1.40;;;24.90;17.50;;;;;;4951406;29;20076;-64
2022/03/22 02:32:55;;;;;;;7.05;1.70;;;24.80;17.50;;;;;;4951307;28;20083;-65
2022/03/22 02:35:23;;;;;;;6.70;1.65;;;24.80;17.60;;;;;;4935583;29;20112;-65
2022/03/22 02:37:51;;;;;;;18.58;2.03;;;24.70;17.50;;;;;;4966195;28;20598;-63
2022/03/22 02:40:18;;;;;;;17.10;1.88;;;24.70;17.80;;;;;;4950911;28;20639;-66
2022/03/22 02:42:49;;;;;;;8.63;1.50;;;24.70;17.70;;;;;;4949723;29;20082;-66
2022/03/22 02:45:17;;;;;;;4.72;1.80;;;24.70;17.80;;;;;;4949716;29;20528;-66
2022/03/22 02:47:44;;;;;;;13.02;2.00;;;24.70;17.90;;;;;;4951122;28;20088;-63
2022/03/22 02:50:11;;;;;;;11.45;2.22;;;24.70;17.80;;;;;;4949557;28;20072;-65
2022/03/22 02:52:39;;;;;;;8.30;2.05;;;24.70;18.10;;;;;;4950632;29;20068;-66
2022/03/22 02:55:08;;;;;;;8.82;1.80;;;24.60;18.20;;;;;;4935898;29;20145;-64
2022/03/22 02:57:35;;;;;;;11.05;2.55;;;24.50;18.40;;;;;;4965921;28;20194;-65
2022/03/22 03:00:03;;;;;;;20.88;3.55;;;24.40;18.50;;;;;;4947889;28;20088;-65
2022/03/22 03:02:30;;;;;;;25.60;4.20;;;24.40;18.80;;;;;;4949534;28;20111;-66
2022/03/22 03:04:57;;;;;;;18.92;4.72;;;24.40;18.90;;;;;;4951212;28;20138;-64
2022/03/22 03:07:23;;;;;;;23.65;5.20;;;24.40;19.20;;;;;;4950542;28;20119;-64
2022/03/22 03:09:50;;;;;;;25.95;5.05;;;24.30;19.00;;;;;;4946134;28;20459;-65
2022/03/22 03:12:16;;;;;;;26.42;4.40;;;24.30;19.10;;;;;;4933897;28;20072;-63
2022/03/22 03:14:43;;;;;;;18.83;3.95;;;24.20;19.30;;;;;;4921682;29;20491;-64
2022/03/22 03:17:14;;;;;;;21.83;3.75;;;24.30;18.90;;;;;;4950665;28;20111;-64
2022/03/22 03:19:42;;;;;;;11.82;2.55;;;24.40;18.80;;;;;;4949681;28;20579;-64
2022/03/22 03:22:09;;;;;;;19.60;2.78;;;24.40;18.90;;;;;;4949350;28;20111;-64
2022/03/22 03:24:38;;;;;;;10.82;2.28;;;24.40;18.90;;;;;;4950917;29;20132;-62
2022/03/22 03:27:04;;;;;;;8.90;2.05;;;24.40;18.90;;;;;;4950033;28;20575;-65
2022/03/22 03:29:31;;;;;;;18.00;2.45;;;24.30;18.80;;;;;;4949730;28;20171;-62
2022/03/22 03:31:57;;;;;;;14.07;2.13;;;24.30;18.80;;;;;;4949300;28;20076;-65
2022/03/22 03:34:24;;;;;;;11.30;1.70;;;24.30;18.90;;;;;;4946372;28;20175;-67
2022/03/22 03:36:50;;;;;;;11.10;1.95;;;24.30;19.00;;;;;;4947737;28;20174;-64
2022/03/22 03:39:17;;;;;;;8.15;1.70;;;24.30;18.90;;;;;;4956876;28;20099;-64
2022/03/22 03:42:00;;;;;;;10.13;2.38;;;24.30;18.90;;;;;;4944916;28;20620;-63
2022/03/22 03:47:19;;;;;;;9.45;1.85;;;24.40;18.80;;;;;;4953841;28;20103;-64
2022/03/22 03:49:54;;;;;;;18.70;6.57;;;24.40;18.90;;;;;;4947955;28;20075;-65
2022/03/22 03:52:26;;;;;;;13.50;2.08;;;24.30;18.90;;;;;;4948334;29;20083;-65
2022/03/22 03:54:53;;;;;;;12.65;1.80;;;24.30;19.00;;;;;;4963339;28;20080;-65
2022/03/22 03:57:23;;;;;;;7.30;1.80;;;24.40;19.10;;;;;;4952272;28;20118;-64
2022/03/22 03:59:51;;;;;;;18.77;2.20;;;24.30;19.10;;;;;;4948143;28;20127;-66
2022/03/22 04:02:18;;;;;;;11.15;1.98;;;24.30;19.10;;;;;;4932696;29;20142;-64
2022/03/22 04:04:55;;;;;;;11.13;2.00;;;24.20;19.30;;;;;;4946672;28;20149;-65
2022/03/22 04:07:23;;;;;;;12.90;1.70;;;24.20;19.50;;;;;;4932966;29;20104;-65
2022/03/22 04:09:51;;;;;;;6.82;2.22;;;24.10;19.70;;;;;;4952048;28;20080;-66
2022/03/22 04:12:19;;;;;;;11.82;2.35;;;24.00;19.80;;;;;;4932121;29;20099;-66
2022/03/22 04:14:48;;;;;;;20.00;2.63;;;24.00;19.80;;;;;;4963843;28;20472;-67
2022/03/22 04:17:15;;;;;;;18.65;2.83;;;23.90;19.90;;;;;;4950106;28;20137;-65
2022/03/22 04:19:41;;;;;;;20.73;3.63;;;23.80;19.90;;;;;;4949089;28;20123;-64
2022/03/22 04:22:08;;;;;;;27.80;4.15;;;23.80;20.10;;;;;;4949388;28;20079;-62
2022/03/22 04:24:35;;;;;;;32.10;4.65;;;23.70;20.30;;;;;;4964189;28;20076;-66
2022/03/22 04:32:44;;;;;;;22.17;4.28;;;23.50;20.80;;;;;;4954649;29;20587;-66
2022/03/22 04:35:24;;;;;;;27.55;3.85;;;23.50;20.90;;;;;;4968397;28;20071;-64
2022/03/22 04:37:55;;;;;;;18.42;3.20;;;23.40;21.20;;;;;;4953001;29;20139;-64
2022/03/22 04:40:21;;;;;;;22.00;2.88;;;23.40;21.40;;;;;;4952138;29;20171;-66
2022/03/22 04:42:50;;;;;;;15.52;2.95;;;23.30;21.60;;;;;;4967936;28;20095;-65
2022/03/22 04:45:16;;;;;;;18.73;3.55;;;23.20;21.80;;;;;;4952986;28;20076;-65
2022/03/22 04:47:46;;;;;;;16.02;3.88;;;23.10;21.80;;;;;;4952921;28;20183;-63
2022/03/22 04:50:15;;;;;;;13.32;2.97;;;23.00;21.90;;;;;;4953913;28;20084;-65
2022/03/22 04:58:11;;;;;;;39.30;15.70;;;22.70;22.40;;;;;;4953092;29;20073;-62
2022/03/22 05:00:37;;;;;;;38.53;17.15;;;22.70;22.90;;;;;;4952881;29;20084;-64
2022/03/22 05:03:07;;;;;;;36.22;14.52;;;22.50;23.00;;;;;;4952740;28;20163;-65
2022/03/22 05:08:20;;;;;;;38.78;15.50;;;22.30;23.50;;;;;;4951796;29;20139;-64
2022/03/22 05:10:46;;;;;;;28.23;11.45;;;22.20;23.60;;;;;;4951887;28;20162;-64
2022/03/22 05:13:12;;;;;;;34.42;14.27;;;22.10;23.80;;;;;;4967950;28;20096;-62
2022/03/22 05:15:39;;;;;;;44.15;14.65;;;22.00;23.90;;;;;;4951448;28;20599;-64
2022/03/22 05:18:05;;;;;;;25.17;10.05;;;22.00;23.80;;;;;;4953212;28;20470;-64
2022/03/22 05:20:32;;;;;;;30.67;4.60;;;21.90;24.00;;;;;;4951089;28;20515;-64
2022/03/22 05:22:58;;;;;;;18.65;3.72;;;21.90;23.70;;;;;;4967272;28;20076;-63
2022/03/22 05:25:30;;;;;;;25.05;4.63;;;21.90;23.60;;;;;;4952179;28;20544;-62
2022/03/22 05:27:58;;;;;;;20.92;3.72;;;21.80;23.90;;;;;;4952756;28;20122;-63
2022/03/22 05:30:25;;;;;;;21.48;4.55;;;21.80;23.70;;;;;;4936380;28;20079;-63
2022/03/22 05:32:51;;;;;;;21.13;4.05;;;21.80;23.60;;;;;;4951681;29;20527;-66
2022/03/22 05:35:18;;;;;;;24.88;4.35;;;21.70;23.80;;;;;;4965705;28;20141;-65
2022/03/22 05:37:44;;;;;;;30.13;4.43;;;21.70;23.90;;;;;;4932689;29;20087;-63
2022/03/22 05:40:11;;;;;;;24.33;4.15;;;21.70;23.70;;;;;;4951493;28;20087;-65
2022/03/22 05:42:39;;;;;;;19.75;4.03;;;21.60;23.90;;;;;;4935489;29;20408;-63
2022/03/22 05:45:07;;;;;;;24.55;4.00;;;21.60;24.10;;;;;;4950508;29;20103;-62
2022/03/22 05:47:33;;;;;;;25.17;4.15;;;21.50;24.10;;;;;;4968499;28;20088;-63
2022/03/22 05:50:00;;;;;;;17.38;4.97;;;21.50;24.00;;;;;;4951310;29;20082;-63
2022/03/22 05:52:26;;;;;;;33.22;5.53;;;21.50;24.60;;;;;;4950917;28;20086;-63
2022/03/22 05:54:53;;;;;;;27.33;5.47;;;21.50;24.00;;;;;;4967559;28;20102;-64
2022/03/22 05:57:19;;;;;;;32.13;6.15;;;21.40;24.10;;;;;;4953645;28;20202;-65
2022/03/22 05:59:46;;;;;;;30.83;5.45;;;21.50;24.10;;;;;;4951530;29;20091;-63
2022/03/22 06:02:13;;;;;;;45.35;5.28;;;21.50;23.90;;;;;;4951133;28;20183;-63
2022/03/22 06:04:41;;;;;;;27.60;5.90;;;21.60;23.70;;;;;;4967362;28;20099;-64
2022/03/22 06:07:08;;;;;;;16.65;6.55;;;21.60;24.10;;;;;;4967423;28;20575;-65
2022/03/22 06:09:34;;;;;;;25.17;7.38;;;21.70;23.50;;;;;;4951009;29;20079;-63
2022/03/22 06:12:00;;;;;;;17.27;6.13;;;21.70;23.50;;;;;;4951136;28;20088;-65
2022/03/22 06:14:27;;;;;;;19.75;5.60;;;21.70;23.40;;;;;;4951421;29;20439;-66
2022/03/22 06:16:53;;;;;;;21.25;5.20;;;21.80;23.40;;;;;;4950091;29;20098;-65
2022/03/22 06:19:19;;;;;;;20.15;4.93;;;21.80;23.40;;;;;;4949923;29;20571;-64
2022/03/22 06:21:46;;;;;;;23.92;4.32;;;21.80;23.60;;;;;;4951911;29;20079;-62
2022/03/22 06:24:12;;;;;;;13.35;3.95;;;21.80;23.70;;;;;;4951633;28;20416;-62
2022/03/22 06:26:38;;;;;;;19.77;3.42;;;21.70;23.70;;;;;;4951025;29;20230;-61
2022/03/22 06:29:05;;;;;;;11.88;3.35;;;21.70;23.70;;;;;;4954393;28;20095;-63
2022/03/22 06:31:35;;;;;;;10.93;3.50;;;21.70;23.70;;;;;;4952155;28;20107;-63
2022/03/22 06:34:04;;;;;;;13.55;3.60;;;21.70;23.90;;;;;;4950520;29;20162;-63
2022/03/22 06:36:31;;;;;;;18.90;3.92;;;21.60;23.90;;;;;;4952211;28;20154;-63
2022/03/22 06:38:57;;;;;;;18.40;4.55;;;21.60;23.90;;;;;;4950539;29;20083;-62
2022/03/22 06:41:24;;;;;;;19.25;7.75;;;21.60;24.10;;;;;;4950499;29;20071;-64
2022/03/22 06:43:50;;;;;;;15.38;6.57;;;21.60;24.10;;;;;;4950283;29;20079;-63
2022/03/22 06:46:18;;;;;;;21.73;6.30;;;21.50;23.90;;;;;;4952895;28;20103;-63
2022/03/22 06:48:44;;;;;;;22.17;6.05;;;21.60;23.90;;;;;;4950812;29;20080;-64
2022/03/22 06:51:11;;;;;;;18.67;5.25;;;21.50;23.80;;;;;;4959246;28;20183;-63
2022/03/22 06:53:37;;;;;;;13.85;5.57;;;21.50;23.70;;;;;;4952819;28;20083;-64
2022/03/22 06:56:05;;;;;;;22.33;4.85;;;21.50;23.90;;;;;;4950323;29;20091;-62
2022/03/22 06:58:32;;;;;;;16.38;5.00;;;21.50;23.80;;;;;;4952078;29;20075;-64
2022/03/22 07:00:58;;;;;;;29.00;5.70;;;21.50;23.90;;;;;;4950502;29;20147;-64
2022/03/22 07:03:25;;;;;;;13.68;5.18;;;21.40;24.10;;;;;;4949402;29;20076;-64
2022/03/22 07:05:52;;;;;;;17.55;3.97;;;21.40;24.20;;;;;;4958943;28;20214;-65
2022/03/22 07:08:18;;;;;;;14.73;3.83;;;21.30;24.60;;;;;;4942391;28;20100;-60
2022/03/22 07:11:47;;;;;;;22.33;4.47;;;21.30;24.80;;;;;;4962941;28;20171;-64
2022/03/22 07:13:32;;;;;;;19.42;5.00;;;21.20;24.90;;;;;;4948059;28;21035;-63
2022/03/22 07:15:58;;;;;;;23.88;5.35;;;21.10;24.70;;;;;;4965023;28;20103;-63
2022/03/22 07:18:24;;;;;;;22.15;5.13;;;21.00;25.20;;;;;;4949662;28;20131;-61
2022/03/22 07:20:50;;;;;;;;;;;21.00;25.10;;;;;;4949402;28;20076;-63
2022/03/22 07:23:17;;;;;;;22.00;5.22;;;20.80;25.10;;;;;;4949675;28;19965;-63
2022/03/22 07:25:43;;;;;;;;;;;20.80;25.50;;;;;;4949821;29;20091;-63
2022/03/22 07:28:09;;;;;;;25.55;5.85;;;20.70;26.00;;;;;;4952781;28;20478;-64
2022/03/22 07:30:35;;;;;;;;;;;20.60;26.20;;;;;;4950550;29;20075;-65
2022/03/22 07:33:05;;;;;;;23.95;6.15;;;20.60;26.60;;;;;;4949265;29;19966;-65
2022/03/22 07:35:32;;;;;;;23.52;5.70;;;20.50;26.20;;;;;;4949553;28;20068;-63
2022/03/22 07:37:58;;;;;;;21.88;5.57;;;20.40;26.40;;;;;;4963161;28;20444;-64
2022/03/22 07:40:24;;;;;;;;;;;20.40;26.50;;;;;;4947904;29;20445;-64
2022/03/22 07:42:51;;;;;;;27.92;5.50;;;20.30;26.50;;;;;;4948010;28;19963;-64
2022/03/22 07:45:19;;;;;;;;;;;20.20;26.40;;;;;;4947432;28;20451;-64
2022/03/22 07:47:46;;;;;;;21.08;5.30;;;20.20;26.70;;;;;;4948793;28;20073;-67
2022/03/22 07:53:06;;;;;;;19.30;5.85;;;20.10;26.30;;;;;;4961503;28;20131;-67
2022/03/22 07:55:45;;;;;;;23.25;6.10;;;20.00;26.60;;;;;;4947354;28;20122;-64
2022/03/22 07:58:12;;;;;;;31.33;6.82;;;19.90;27.10;;;;;;4946337;29;20086;-66
2022/03/22 08:00:40;;;;;;;36.70;6.38;;;19.90;26.70;;;;;;4949460;28;20095;-66
2022/03/22 08:03:12;;;;;;;25.38;5.93;;;19.80;26.70;;;;;;4941585;28;20072;-64
2022/03/22 08:05:44;;;;;;;34.95;6.72;;;19.70;26.70;;;;;;4949242;28;20110;-62
2022/03/22 08:08:10;;;;;;;30.75;6.90;;;19.70;26.80;;;;;;4960589;28;20159;-65
2022/03/22 08:10:36;;;;;;;;;;;19.70;27.00;;;;;;4946622;29;20066;-64
2022/03/22 08:13:03;;;;;;;28.75;7.20;;;19.60;27.10;;;;;;4947387;28;19975;-64
2022/03/22 08:15:30;;;;;;;32.85;7.43;;;19.50;27.10;;;;;;4946347;29;20072;-64
2022/03/22 08:17:56;;;;;;;29.30;7.18;;;19.50;27.20;;;;;;4949913;28;20447;-63
2022/03/22 08:20:27;;;;;;;28.98;7.57;;;19.50;27.40;;;;;;4948707;28;20182;-67
2022/03/22 08:22:55;;;;;;;31.13;7.50;;;19.50;27.60;;;;;;4949870;29;20156;-66
2022/03/22 08:25:38;;;;;;;41.00;8.32;;;19.40;27.70;;;;;;4948250;29;20171;-65
2022/03/22 08:28:07;;;;;;;31.95;9.05;;;19.40;27.90;;;;;;4962770;28;20162;-65
2022/03/22 08:30:34;;;;;;;38.78;9.07;;;19.40;27.70;;;;;;4962164;28;20076;-64
2022/03/22 08:33:09;;;;;;;35.97;8.35;;;19.40;28.00;;;;;;4963721;28;20130;-64
2022/03/22 08:35:52;;;;;;;29.17;9.02;;;19.40;28.00;;;;;;4948689;28;20087;-63
2022/03/22 08:38:20;;;;;;;52.65;9.73;;;19.30;27.90;;;;;;4948413;29;20532;-64
2022/03/22 08:40:48;;;;;;;38.28;8.43;;;19.20;28.90;;;;;;4961484;28;20087;-65
2022/03/22 08:43:14;;;;;;;33.95;8.40;;;19.20;28.90;;;;;;4958951;28;20087;-64
2022/03/22 08:45:41;;;;;;;35.50;8.75;;;19.10;28.60;;;;;;4949231;28;20529;-62
2022/03/22 08:48:12;;;;;;;42.15;8.43;;;19.20;28.90;;;;;;4942150;29;20616;-64
2022/03/22 08:50:49;;;;;;;34.03;8.93;;;19.10;28.80;;;;;;4948784;28;20072;-65
2022/03/22 08:53:17;;;;;;;44.92;9.73;;;19.00;28.80;;;;;;4946788;29;20082;-64
2022/03/22 08:55:45;;;;;;;42.58;8.60;;;19.00;28.90;;;;;;4960262;28;20084;-63
2022/03/22 08:58:12;;;;;;;41.67;9.30;;;18.90;28.80;;;;;;4962837;28;20082;-64
2022/03/22 09:00:38;;;;;;;41.53;8.82;;;18.90;28.90;;;;;;4962715;28;20508;-63
2022/03/22 09:03:06;;;;;;;42.45;8.63;;;18.90;28.90;;;;;;4948461;29;20082;-64
2022/03/22 09:08:18;;;;;;;44.88;9.82;;;18.80;29.20;;;;;;4946858;29;20154;-62
2022/03/22 09:10:46;;;;;;;32.42;8.98;;;18.80;29.60;;;;;;4954864;28;20075;-63
2022/03/22 09:13:13;;;;;;;53.03;9.18;;;18.80;29.40;;;;;;4954313;28;20082;-63
2022/03/22 09:15:40;;;;;;;37.72;8.75;;;18.70;29.70;;;;;;4946500;29;20108;-62
2022/03/22 09:18:40;;;;;;;40.45;8.55;;;18.70;29.70;;;;;;4949386;28;20083;-62
2022/03/22 09:21:00;;;;;;;29.63;8.63;;;18.70;29.80;;;;;;4949716;29;20088;-61
2022/03/22 09:23:26;;;;;;;29.02;8.50;;;18.70;30.00;;;;;;4950241;28;20083;-61
2022/03/22 09:25:54;;;;;;;;;;;18.70;30.00;;;;;;4952601;28;20076;-64
2022/03/22 09:28:20;;;;;;;41.45;9.63;;;18.60;29.90;;;;;;4951938;28;19979;-61
2022/03/22 09:30:48;;;;;;;42.20;8.75;;;18.60;30.30;;;;;;4949599;29;20076;-61
2022/03/22 09:33:14;;;;;;;34.08;8.90;;;18.50;30.00;;;;;;4957792;28;20124;-64
2022/03/22 09:35:41;;;;;;;39.13;9.02;;;18.50;30.20;;;;;;4948569;29;20191;-63
2022/03/22 09:38:07;;;;;;;42.15;10.02;;;18.50;31.00;;;;;;4948859;28;21360;-62
2022/03/22 09:40:33;;;;;;;;;;;18.50;30.80;;;;;;4949356;28;20090;-62
2022/03/22 09:43:00;;;;;;;48.03;9.93;;;18.40;30.60;;;;;;4955146;28;20390;-62
2022/03/22 09:45:32;;;;;;;33.80;9.98;;;18.40;30.20;;;;;;4951889;28;20092;-61
2022/03/22 09:47:59;;;;;;;36.80;11.15;;;18.40;30.20;;;;;;4951168;28;20091;-62
2022/03/22 09:53:14;;;;;;;48.30;14.38;;;18.30;29.60;;;;;;4951591;28;20130;-61
2022/03/22 09:55:41;;;;;;;44.20;16.13;;;18.20;29.80;;;;;;4963715;28;20100;-62
2022/03/22 09:58:08;;;;;;;44.50;18.08;;;18.20;29.70;;;;;;4947311;29;20076;-63
2022/03/22 10:00:35;;;;;;;51.28;20.15;;;18.20;29.90;;;;;;4965549;28;20080;-62
2022/03/22 10:03:01;;;;;;;57.17;21.08;;;18.20;30.00;;;;;;4963872;28;20087;-62
2022/03/22 10:05:29;;;;;;;45.65;19.15;;;18.20;30.10;;;;;;4954127;28;20135;-62
2022/03/22 10:08:15;;;;;;;39.72;18.27;;;18.10;30.60;;;;;;4957733;28;20148;-61
2022/03/22 10:10:58;;;;;;;44.65;17.83;;;18.10;30.50;;;;;;4948871;29;20098;-62
2022/03/22 10:13:25;;;;;;;48.65;19.05;;;18.10;31.00;;;;;;4949757;28;20072;-61
2022/03/22 10:16:02;;;;;;;45.45;19.15;;;18.10;31.20;;;;;;4964289;28;20083;-61
2022/03/22 10:18:28;;;;;;;39.28;16.95;;;18.10;30.90;;;;;;4965108;28;20448;-62
2022/03/22 10:20:59;;;;;;;;;;;18.00;30.60;;;;;;4945075;28;20087;-62
2022/03/22 10:23:25;;;;;;;29.77;13.30;;;17.90;30.60;;;;;;4950876;29;19965;-64
2022/03/22 10:26:09;;;;;;;32.53;12.20;;;17.80;30.70;;;;;;4949965;29;20080;-61
2022/03/22 10:28:36;;;;;;;33.63;12.35;;;17.80;31.00;;;;;;4952131;28;20076;-63
2022/03/22 10:31:03;;;;;;;27.90;11.23;;;17.70;31.10;;;;;;4958041;28;20879;-63
2022/03/22 10:33:30;;;;;;;37.83;12.05;;;17.70;31.30;;;;;;4950363;28;20091;-64
2022/03/22 10:35:57;;;;;;;40.95;12.73;;;17.70;31.40;;;;;;4955001;28;20080;-62
2022/03/22 10:38:23;;;;;;;35.13;10.90;;;17.70;32.20;;;;;;4946248;29;20552;-62
2022/03/22 10:40:50;;;;;;;;;;;17.70;31.40;;;;;;4965720;28;20166;-61
2022/03/22 10:43:20;;;;;;;40.40;10.63;;;17.70;31.50;;;;;;4965386;28;19969;-63
2022/03/22 10:45:48;;;;;;;29.75;10.18;;;17.60;31.70;;;;;;4945980;28;20155;-61
2022/03/22 10:48:19;;;;;;;35.83;9.77;;;17.60;32.20;;;;;;4962463;28;20110;-63
2022/03/22 10:50:47;;;;;;;32.85;8.45;;;17.60;33.00;;;;;;4964551;28;20523;-62
2022/03/22 10:53:17;;;;;;;31.45;7.55;;;17.60;33.10;;;;;;4950317;29;20095;-62
2022/03/22 10:55:45;;;;;;;26.73;7.65;;;17.50;33.20;;;;;;4948414;28;20100;-62
2022/03/22 10:58:19;;;;;;;19.85;7.07;;;17.50;33.40;;;;;;4943559;29;20084;-63
2022/03/22 11:00:46;;;;;;;20.10;7.13;;;17.50;33.10;;;;;;4962668;28;20084;-63
2022/03/22 11:03:14;;;;;;;39.97;8.90;;;17.40;33.10;;;;;;4963623;28;20080;-62
2022/03/22 11:05:55;;;;;;;26.50;8.00;;;17.40;32.70;;;;;;4961368;28;20588;-63
2022/03/22 11:08:31;;;;;;;22.33;8.10;;;17.40;32.80;;;;;;4953671;28;20088;-62
2022/03/22 11:10:58;;;;;;;24.95;8.52;;;17.30;32.80;;;;;;4947316;29;20158;-62
2022/03/22 11:13:25;;;;;;;32.75;7.95;;;17.30;33.10;;;;;;4950292;28;20079;-62
2022/03/22 11:15:52;;;;;;;28.27;8.25;;;17.30;33.40;;;;;;4962305;28;20162;-64
2022/03/22 11:18:21;;;;;;;33.15;9.65;;;17.20;33.70;;;;;;4959164;28;20425;-63
2022/03/22 11:20:49;;;;;;;30.23;9.57;;;17.20;33.90;;;;;;4957870;28;20595;-63
2022/03/22 11:23:20;;;;;;;26.83;9.88;;;17.20;34.10;;;;;;4964961;28;20167;-63
2022/03/22 11:25:46;;;;;;;32.88;9.23;;;17.10;34.20;;;;;;4962626;28;20076;-63
2022/03/22 11:28:16;;;;;;;33.65;9.82;;;17.00;34.40;;;;;;4964206;28;20091;-62
2022/03/22 11:30:43;;;;;;;33.40;9.93;;;17.00;34.20;;;;;;4948745;29;20076;-61
2022/03/22 11:36:00;;;;;;;26.08;14.25;;;16.90;34.30;;;;;;4947404;29;20696;-66
2022/03/22 11:38:35;;;;;;;39.47;16.48;;;16.90;34.10;;;;;;4943992;28;20084;-67
2022/03/22 11:43:48;;;;;;;54.17;23.55;;;16.90;35.00;;;;;;4950366;29;20138;-64
2022/03/22 11:46:15;;;;;;;48.75;26.48;;;16.90;35.40;;;;;;4954167;28;20090;-63
2022/03/22 11:48:41;;;;;;;54.88;29.40;;;16.90;35.10;;;;;;4950082;29;20207;-62
2022/03/22 11:51:09;;;;;;;52.10;28.27;;;16.90;35.30;;;;;;4948165;28;20150;-61
2022/03/22 11:53:46;;;;;;;64.55;29.48;;;16.80;35.60;;;;;;4947944;28;20076;-62
2022/03/22 11:56:12;;;;;;;60.00;26.52;;;16.70;35.60;;;;;;4964748;28;20573;-61
2022/03/22 11:58:49;;;;;;;51.15;24.77;;;16.80;35.50;;;;;;4949583;29;20080;-62
2022/03/22 12:01:16;;;;;;;;;;;16.60;35.40;;;;;;4956668;28;20082;-61
2022/03/22 12:03:52;;;;;;;66.93;30.05;;;16.60;35.60;;;;;;4964759;28;20490;-61
2022/03/22 12:06:19;;;;;;;67.85;33.08;;;16.60;35.80;;;;;;4956520;28;20781;-63
2022/03/22 12:08:46;;;;;;;61.17;33.78;;;16.60;36.00;;;;;;4949076;28;20114;-62
2022/03/22 12:11:13;;;;;;;;;;;16.60;35.90;;;;;;4956448;28;20080;-64
2022/03/22 12:13:49;;;;;;;74.68;40.90;;;16.60;36.40;;;;;;4948587;28;19959;-61
2022/03/22 12:16:16;;;;;;;63.25;38.47;;;16.50;35.70;;;;;;4962480;28;20075;-61
2022/03/22 12:18:42;;;;;;;;;;;16.40;35.90;;;;;;4947723;29;20117;-61
2022/03/22 12:21:19;;;;;;;57.05;34.92;;;16.40;35.90;;;;;;4947090;29;20006;-62
2022/03/22 12:23:46;;;;;;;46.08;25.27;;;16.30;36.00;;;;;;4948458;28;20064;-61
2022/03/22 12:26:13;;;;;;;38.97;20.40;;;16.30;36.00;;;;;;4956544;28;20067;-62
2022/03/22 12:28:54;;;;;;;42.55;20.80;;;16.30;35.70;;;;;;4957928;28;20118;-62
2022/03/22 12:31:21;;;;;;;42.13;23.45;;;16.30;35.80;;;;;;4948675;29;20075;-62
2022/03/22 12:33:52;;;;;;;41.58;20.25;;;16.30;35.80;;;;;;4933336;29;20068;-63
2022/03/22 12:36:22;;;;;;;45.75;17.60;;;16.40;36.00;;;;;;4946833;28;20479;-66
2022/03/22 12:38:49;;;;;;;39.00;12.68;;;16.30;36.00;;;;;;4948246;29;20130;-62
2022/03/22 12:41:15;;;;;;;;;;;16.30;35.80;;;;;;4948734;28;20084;-62
2022/03/22 12:43:45;;;;;;;28.48;9.05;;;16.40;35.90;;;;;;4948404;28;19963;-61
2022/03/22 12:46:13;;;;;;;26.65;7.05;;;16.30;35.90;;;;;;4948027;28;20076;-62
2022/03/22 12:48:41;;;;;;;18.33;6.53;;;16.30;36.10;;;;;;4946545;28;20064;-63
2022/03/22 12:51:09;;;;;;;20.08;6.38;;;16.40;35.90;;;;;;4953130;28;20087;-64
2022/03/22 12:53:37;;;;;;;33.10;6.97;;;16.40;36.00;;;;;;4958757;28;20103;-62
2022/03/22 12:56:16;;;;;;;30.55;8.32;;;16.40;35.80;;;;;;4952272;28;20087;-64
2022/03/22 12:58:43;;;;;;;30.23;8.50;;;16.40;36.00;;;;;;4952763;29;20621;-63
2022/03/22 13:01:10;;;;;;;39.42;9.57;;;16.40;35.80;;;;;;4960446;28;20135;-64
2022/03/22 13:03:38;;;;;;;43.83;9.57;;;16.40;35.80;;;;;;4964900;28;20076;-63
2022/03/22 13:06:07;;;;;;;30.48;9.60;;;16.40;36.00;;;;;;4962937;28;20147;-62
2022/03/22 13:11:26;;;;;;;33.22;9.85;;;16.30;36.00;;;;;;4949174;29;20078;-62
2022/03/22 13:16:42;;;;;;;62.40;12.23;;;16.30;35.80;;;;;;4947885;28;20135;-61
2022/03/22 13:19:09;;;;;;;62.15;13.07;;;16.40;35.60;;;;;;4967166;28;20749;-63
2022/03/22 13:21:38;;;;;;;53.88;12.45;;;16.40;35.70;;;;;;4954311;28;20087;-62
2022/03/22 13:24:07;;;;;;;51.78;13.48;;;16.30;35.80;;;;;;4944615;28;20464;-62
2022/03/22 13:26:35;;;;;;;47.47;11.80;;;16.30;35.60;;;;;;4951160;29;20091;-63
2022/03/22 13:29:13;;;;;;;39.70;11.05;;;16.40;35.20;;;;;;4949600;28;20076;-62